sensor_id;sensor_type;location;lat;lon;timestamp;pressure;altitude;pressure_sealevel;temperature;humidity
61039;BME280;46919;45.816;3.104;2023-12-29T00:01:57;98260.75;;;5.67;100.00
61039;BME280;46919;45.816;3.104;2023-12-29T00:04:24;98255.38;;;5.67;100.00
61039;BME280;46919;45.816;3.104;2023-12-29T00:06:50;98248.63;;;5.71;100.00
61039;BME280;46919;45.816;3.104;2023-12-29T00:09:15;98239.47;;;5.80;100.00
61039;BME280;46919;45.816;3.104;2023-12-29T00:11:41;98238.72;;;5.86;100.00
61039;BME280;46919;45.816;3.104;2023-12-29T00:14:06;98239.66;;;5.93;100.00
61039;BME280;46919;45.816;3.104;2023-12-29T00:16:32;98238.91;;;5.85;100.00
61039;BME280;46919;45.816;3.104;2023-12-29T00:18:57;98236.88;;;5.72;100.00
61039;BME280;46919;45.816;3.104;2023-12-29T00:21:22;98232.81;;;5.76;100.00
61039;BME280;46919;45.816;3.104;2023-12-29T00:23:48;98227.63;;;5.89;100.00
61039;BME280;46919;45.816;3.104;2023-12-29T00:26:17;98229.47;;;5.89;100.00
61039;BME280;46919;45.816;3.104;2023-12-29T00:28:45;98238.28;;;5.83;100.00
61039;BME280;46919;45.816;3.104;2023-12-29T00:31:15;98229.41;;;5.82;100.00
61039;BME280;46919;45.816;3.104;2023-12-29T00:33:43;98233.94;;;5.67;100.00
61039;BME280;46919;45.816;3.104;2023-12-29T00:36:19;98226.03;;;5.50;100.00
61039;BME280;46919;45.816;3.104;2023-12-29T00:38:45;98231.22;;;5.37;100.00
61039;BME280;46919;45.816;3.104;2023-12-29T00:41:11;98235.94;;;5.35;100.00
61039;BME280;46919;45.816;3.104;2023-12-29T00:43:37;98235.44;;;5.31;100.00
61039;BME280;46919;45.816;3.104;2023-12-29T00:46:03;98249.25;;;5.43;100.00
61039;BME280;46919;45.816;3.104;2023-12-29T00:48:29;98246.84;;;5.48;100.00
61039;BME280;46919;45.816;3.104;2023-12-29T00:50:54;98247.88;;;5.77;100.00
61039;BME280;46919;45.816;3.104;2023-12-29T00:53:20;98239.19;;;5.90;100.00
61039;BME280;46919;45.816;3.104;2023-12-29T00:55:45;98250.50;;;6.00;100.00
61039;BME280;46919;45.816;3.104;2023-12-29T00:58:11;98242.47;;;6.37;100.00
61039;BME280;46919;45.816;3.104;2023-12-29T01:00:36;98231.34;;;6.40;100.00
61039;BME280;46919;45.816;3.104;2023-12-29T01:03:01;98227.44;;;6.21;100.00
61039;BME280;46919;45.816;3.104;2023-12-29T01:05:27;98217.56;;;6.06;100.00
61039;BME280;46919;45.816;3.104;2023-12-29T01:07:54;98216.53;;;5.92;100.00
61039;BME280;46919;45.816;3.104;2023-12-29T01:10:20;98220.59;;;5.88;100.00
61039;BME280;46919;45.816;3.104;2023-12-29T01:12:45;98230.22;;;5.83;100.00
61039;BME280;46919;45.816;3.104;2023-12-29T01:15:11;98235.50;;;5.76;100.00
61039;BME280;46919;45.816;3.104;2023-12-29T01:17:36;98233.94;;;5.67;100.00
61039;BME280;46919;45.816;3.104;2023-12-29T01:20:02;98237.44;;;5.52;100.00
61039;BME280;46919;45.816;3.104;2023-12-29T01:22:29;98243.63;;;5.38;100.00
61039;BME280;46919;45.816;3.104;2023-12-29T01:24:55;98225.66;;;5.23;100.00
61039;BME280;46919;45.816;3.104;2023-12-29T01:27:20;98220.81;;;5.04;100.00
61039;BME280;46919;45.816;3.104;2023-12-29T01:29:46;98219.63;;;4.83;100.00
61039;BME280;46919;45.816;3.104;2023-12-29T01:32:11;98225.78;;;4.69;100.00
61039;BME280;46919;45.816;3.104;2023-12-29T01:34:36;98224.13;;;4.68;100.00
61039;BME280;46919;45.816;3.104;2023-12-29T01:37:03;98239.34;;;4.67;100.00
61039;BME280;46919;45.816;3.104;2023-12-29T01:39:29;98243.22;;;4.65;100.00
61039;BME280;46919;45.816;3.104;2023-12-29T01:41:55;98244.66;;;4.52;100.00
61039;BME280;46919;45.816;3.104;2023-12-29T01:44:22;98240.19;;;4.45;100.00
61039;BME280;46919;45.816;3.104;2023-12-29T01:46:50;98237.91;;;4.33;100.00
61039;BME280;46919;45.816;3.104;2023-12-29T01:49:16;98247.41;;;4.36;100.00
61039;BME280;46919;45.816;3.104;2023-12-29T01:51:43;98243.16;;;4.73;100.00
61039;BME280;46919;45.816;3.104;2023-12-29T01:54:12;98240.78;;;4.78;100.00
61039;BME280;46919;45.816;3.104;2023-12-29T01:56:38;98239.81;;;4.71;100.00
61039;BME280;46919;45.816;3.104;2023-12-29T01:59:05;98231.66;;;4.64;100.00
61039;BME280;46919;45.816;3.104;2023-12-29T02:01:31;98238.47;;;4.75;100.00
61039;BME280;46919;45.816;3.104;2023-12-29T02:03:57;98244.91;;;5.04;100.00
61039;BME280;46919;45.816;3.104;2023-12-29T02:06:23;98241.56;;;5.25;100.00
61039;BME280;46919;45.816;3.104;2023-12-29T02:08:49;98235.47;;;5.61;100.00
61039;BME280;46919;45.816;3.104;2023-12-29T02:11:16;98230.69;;;5.71;100.00
61039;BME280;46919;45.816;3.104;2023-12-29T02:13:42;98227.16;;;5.86;100.00
61039;BME280;46919;45.816;3.104;2023-12-29T02:16:33;98223.75;;;6.07;100.00
61039;BME280;46919;45.816;3.104;2023-12-29T02:19:07;98225.50;;;6.14;100.00
61039;BME280;46919;45.816;3.104;2023-12-29T02:21:34;98230.56;;;6.24;100.00
61039;BME280;46919;45.816;3.104;2023-12-29T02:24:00;98221.50;;;6.25;100.00
61039;BME280;46919;45.816;3.104;2023-12-29T02:26:29;98218.56;;;6.05;100.00
61039;BME280;46919;45.816;3.104;2023-12-29T02:29:00;98220.69;;;5.80;100.00
61039;BME280;46919;45.816;3.104;2023-12-29T02:31:29;98225.44;;;5.63;100.00
61039;BME280;46919;45.816;3.104;2023-12-29T02:33:56;98225.41;;;5.48;100.00
61039;BME280;46919;45.816;3.104;2023-12-29T02:36:22;98216.50;;;5.33;100.00
61039;BME280;46919;45.816;3.104;2023-12-29T02:38:49;98221.13;;;5.24;100.00
61039;BME280;46919;45.816;3.104;2023-12-29T02:41:14;98222.72;;;5.78;100.00
61039;BME280;46919;45.816;3.104;2023-12-29T02:43:40;98215.88;;;5.90;100.00
61039;BME280;46919;45.816;3.104;2023-12-29T02:46:05;98219.69;;;5.81;100.00
61039;BME280;46919;45.816;3.104;2023-12-29T02:48:31;98214.84;;;5.91;100.00
61039;BME280;46919;45.816;3.104;2023-12-29T02:50:56;98215.25;;;5.73;100.00
61039;BME280;46919;45.816;3.104;2023-12-29T02:53:22;98215.31;;;5.50;100.00
61039;BME280;46919;45.816;3.104;2023-12-29T02:55:47;98208.97;;;5.36;100.00
61039;BME280;46919;45.816;3.104;2023-12-29T02:58:12;98214.94;;;5.53;100.00
61039;BME280;46919;45.816;3.104;2023-12-29T03:00:38;98209.59;;;5.83;100.00
61039;BME280;46919;45.816;3.104;2023-12-29T03:03:03;98202.84;;;5.72;100.00
61039;BME280;46919;45.816;3.104;2023-12-29T03:05:29;98198.13;;;5.59;100.00
61039;BME280;46919;45.816;3.104;2023-12-29T03:07:54;98194.06;;;5.49;100.00
61039;BME280;46919;45.816;3.104;2023-12-29T03:10:20;98197.09;;;5.45;100.00
61039;BME280;46919;45.816;3.104;2023-12-29T03:12:45;98190.63;;;5.55;100.00
61039;BME280;46919;45.816;3.104;2023-12-29T03:15:11;98179.00;;;5.62;100.00
61039;BME280;46919;45.816;3.104;2023-12-29T03:17:36;98188.06;;;5.61;100.00
61039;BME280;46919;45.816;3.104;2023-12-29T03:20:02;98188.06;;;5.61;100.00
61039;BME280;46919;45.816;3.104;2023-12-29T03:22:28;98187.31;;;5.68;100.00
61039;BME280;46919;45.816;3.104;2023-12-29T03:24:53;98178.25;;;5.69;100.00
61039;BME280;46919;45.816;3.104;2023-12-29T03:27:19;98164.94;;;5.60;100.00
61039;BME280;46919;45.816;3.104;2023-12-29T03:29:44;98172.63;;;5.49;100.00
61039;BME280;46919;45.816;3.104;2023-12-29T03:32:10;98171.97;;;5.47;100.00
61039;BME280;46919;45.816;3.104;2023-12-29T03:34:35;98178.63;;;5.36;100.00
61039;BME280;46919;45.816;3.104;2023-12-29T03:37:01;98164.41;;;5.20;100.00
61039;BME280;46919;45.816;3.104;2023-12-29T03:39:26;98158.19;;;5.05;100.00
61039;BME280;46919;45.816;3.104;2023-12-29T03:41:51;98168.03;;;4.89;100.00
61039;BME280;46919;45.816;3.104;2023-12-29T03:44:17;98166.44;;;4.80;100.00
61039;BME280;46919;45.816;3.104;2023-12-29T03:46:43;98168.84;;;4.90;100.00
61039;BME280;46919;45.816;3.104;2023-12-29T03:49:09;98163.72;;;5.03;100.00
61039;BME280;46919;45.816;3.104;2023-12-29T03:51:34;98163.63;;;4.97;100.00
61039;BME280;46919;45.816;3.104;2023-12-29T03:54:00;98153.66;;;4.90;100.00
61039;BME280;46919;45.816;3.104;2023-12-29T03:56:26;98154.72;;;4.81;100.00
61039;BME280;46919;45.816;3.104;2023-12-29T03:58:51;98158.22;;;4.82;100.00
61039;BME280;46919;45.816;3.104;2023-12-29T04:01:17;98148.56;;;4.96;100.00
61039;BME280;46919;45.816;3.104;2023-12-29T04:03:43;98144.69;;;4.98;100.00
61039;BME280;46919;45.816;3.104;2023-12-29T04:06:09;98148.13;;;5.07;100.00
61039;BME280;46919;45.816;3.104;2023-12-29T04:08:35;98146.38;;;5.14;100.00
61039;BME280;46919;45.816;3.104;2023-12-29T04:11:02;98144.97;;;5.18;100.00
61039;BME280;46919;45.816;3.104;2023-12-29T04:13:28;98138.44;;;5.21;100.00
61039;BME280;46919;45.816;3.104;2023-12-29T04:15:54;98154.50;;;5.21;100.00
61039;BME280;46919;45.816;3.104;2023-12-29T04:18:21;98151.28;;;5.25;100.00
61039;BME280;46919;45.816;3.104;2023-12-29T04:20:47;98152.47;;;5.23;100.00
61039;BME280;46919;45.816;3.104;2023-12-29T04:23:12;98150.91;;;5.29;100.00
61039;BME280;46919;45.816;3.104;2023-12-29T04:25:37;98144.25;;;5.24;100.00
61039;BME280;46919;45.816;3.104;2023-12-29T04:28:03;98145.09;;;5.25;100.00
61039;BME280;46919;45.816;3.104;2023-12-29T04:30:29;98139.81;;;5.32;100.00
61039;BME280;46919;45.816;3.104;2023-12-29T04:32:54;98146.47;;;5.36;100.00
61039;BME280;46919;45.816;3.104;2023-12-29T04:35:19;98145.72;;;5.42;100.00
61039;BME280;46919;45.816;3.104;2023-12-29T04:37:45;98164.75;;;5.47;100.00
61039;BME280;46919;45.816;3.104;2023-12-29T04:40:11;98162.56;;;5.51;100.00
61039;BME280;46919;45.816;3.104;2023-12-29T04:42:37;98166.50;;;5.55;100.00
61039;BME280;46919;45.816;3.104;2023-12-29T04:45:03;98164.69;;;5.55;100.00
61039;BME280;46919;45.816;3.104;2023-12-29T04:47:29;98157.84;;;5.53;100.00
61039;BME280;46919;45.816;3.104;2023-12-29T04:49:54;98148.31;;;5.50;100.00
61039;BME280;46919;45.816;3.104;2023-12-29T04:52:19;98146.28;;;5.52;100.00
61039;BME280;46919;45.816;3.104;2023-12-29T04:54:45;98143.88;;;5.57;100.00
61039;BME280;46919;45.816;3.104;2023-12-29T04:57:10;98144.41;;;5.68;100.00
61039;BME280;46919;45.816;3.104;2023-12-29T04:59:36;98144.03;;;5.71;100.00
61039;BME280;46919;45.816;3.104;2023-12-29T05:02:01;98158.47;;;5.70;100.00
61039;BME280;46919;45.816;3.104;2023-12-29T05:04:27;98158.09;;;5.73;100.00
61039;BME280;46919;45.816;3.104;2023-12-29T05:06:52;98152.75;;;5.73;100.00
61039;BME280;46919;45.816;3.104;2023-12-29T05:09:17;98153.56;;;5.73;100.00
61039;BME280;46919;45.816;3.104;2023-12-29T05:11:43;98153.13;;;5.70;100.00
61039;BME280;46919;45.816;3.104;2023-12-29T05:14:08;98150.25;;;5.71;100.00
61039;BME280;46919;45.816;3.104;2023-12-29T05:16:34;98142.38;;;5.70;100.00
61039;BME280;46919;45.816;3.104;2023-12-29T05:19:00;98141.34;;;5.71;100.00
61039;BME280;46919;45.816;3.104;2023-12-29T05:21:25;98142.47;;;5.76;100.00
61039;BME280;46919;45.816;3.104;2023-12-29T05:23:52;98137.16;;;5.83;100.00
61039;BME280;46919;45.816;3.104;2023-12-29T05:26:18;98149.13;;;5.80;100.00
61039;BME280;46919;45.816;3.104;2023-12-29T05:28:43;98148.28;;;5.80;100.00
61039;BME280;46919;45.816;3.104;2023-12-29T05:31:09;98155.31;;;5.81;100.00
61039;BME280;46919;45.816;3.104;2023-12-29T05:33:35;98161.41;;;5.75;100.00
61039;BME280;46919;45.816;3.104;2023-12-29T05:36:06;98154.13;;;5.69;100.00
61039;BME280;46919;45.816;3.104;2023-12-29T05:38:35;98152.44;;;5.68;100.00
61039;BME280;46919;45.816;3.104;2023-12-29T05:41:04;98147.09;;;5.68;100.00
61039;BME280;46919;45.816;3.104;2023-12-29T05:43:31;98155.59;;;5.71;100.00
61039;BME280;46919;45.816;3.104;2023-12-29T05:45:57;98153.38;;;5.75;100.00
61039;BME280;46919;45.816;3.104;2023-12-29T05:48:22;98146.53;;;5.72;100.00
61039;BME280;46919;45.816;3.104;2023-12-29T05:50:49;98143.03;;;5.72;100.00
61039;BME280;46919;45.816;3.104;2023-12-29T05:53:15;98142.19;;;5.71;100.00
61039;BME280;46919;45.816;3.104;2023-12-29T05:55:40;98149.19;;;5.72;100.00
61039;BME280;46919;45.816;3.104;2023-12-29T05:58:06;98153.53;;;5.88;100.00
61039;BME280;46919;45.816;3.104;2023-12-29T06:00:31;98145.94;;;6.07;100.00
61039;BME280;46919;45.816;3.104;2023-12-29T06:02:56;98138.09;;;6.27;100.00
61039;BME280;46919;45.816;3.104;2023-12-29T06:05:22;98155.44;;;6.46;100.00
61039;BME280;46919;45.816;3.104;2023-12-29T06:07:47;98157.59;;;6.57;100.00
61039;BME280;46919;45.816;3.104;2023-12-29T06:10:13;98156.69;;;6.71;100.00
61039;BME280;46919;45.816;3.104;2023-12-29T06:12:38;98163.59;;;6.81;100.00
61039;BME280;46919;45.816;3.104;2023-12-29T06:15:04;98164.13;;;6.98;100.00
61039;BME280;46919;45.816;3.104;2023-12-29T06:17:29;98155.34;;;7.11;100.00
61039;BME280;46919;45.816;3.104;2023-12-29T06:19:55;98152.91;;;7.16;100.00
61039;BME280;46919;45.816;3.104;2023-12-29T06:22:20;98157.22;;;7.17;100.00
61039;BME280;46919;45.816;3.104;2023-12-29T06:24:46;98147.09;;;7.12;100.00
61039;BME280;46919;45.816;3.104;2023-12-29T06:27:11;98153.69;;;7.10;100.00
61039;BME280;46919;45.816;3.104;2023-12-29T06:29:37;98152.03;;;7.15;100.00
61039;BME280;46919;45.816;3.104;2023-12-29T06:32:03;98147.91;;;7.13;100.00
61039;BME280;46919;45.816;3.104;2023-12-29T06:34:29;98146.63;;;7.08;100.00
61039;BME280;46919;45.816;3.104;2023-12-29T06:36:54;98149.50;;;7.07;100.00
61039;BME280;46919;45.816;3.104;2023-12-29T06:39:19;98154.22;;;6.98;100.00
61039;BME280;46919;45.816;3.104;2023-12-29T06:41:45;98165.13;;;6.90;100.00
61039;BME280;46919;45.816;3.104;2023-12-29T06:44:10;98176.69;;;6.91;100.00
61039;BME280;46919;45.816;3.104;2023-12-29T06:46:39;98165.13;;;6.90;100.00
61039;BME280;46919;45.816;3.104;2023-12-29T06:49:08;98166.13;;;6.89;100.00
61039;BME280;46919;45.816;3.104;2023-12-29T06:51:34;98171.34;;;6.97;100.00
61039;BME280;46919;45.816;3.104;2023-12-29T06:54:00;98180.03;;;6.99;100.00
61039;BME280;46919;45.816;3.104;2023-12-29T06:56:26;98173.03;;;6.98;100.00
61039;BME280;46919;45.816;3.104;2023-12-29T06:58:51;98187.25;;;6.92;100.00
61039;BME280;46919;45.816;3.104;2023-12-29T07:01:17;98184.50;;;6.85;100.00
61039;BME280;46919;45.816;3.104;2023-12-29T07:03:43;98175.09;;;6.75;100.00
61039;BME280;46919;45.816;3.104;2023-12-29T07:06:09;98184.94;;;6.67;100.00
61039;BME280;46919;45.816;3.104;2023-12-29T07:08:35;98179.38;;;6.69;100.00
61039;BME280;46919;45.816;3.104;2023-12-29T07:11:00;98171.28;;;6.62;100.00
61039;BME280;46919;45.816;3.104;2023-12-29T07:13:25;98176.78;;;6.54;100.00
61039;BME280;46919;45.816;3.104;2023-12-29T07:15:51;98177.97;;;6.51;100.00
61039;BME280;46919;45.816;3.104;2023-12-29T07:18:16;98174.59;;;6.43;100.00
61039;BME280;46919;45.816;3.104;2023-12-29T07:20:42;98183.03;;;6.40;100.00
61039;BME280;46919;45.816;3.104;2023-12-29T07:23:08;98175.47;;;6.50;100.00
61039;BME280;46919;45.816;3.104;2023-12-29T07:25:33;98181.38;;;6.60;100.00
61039;BME280;46919;45.816;3.104;2023-12-29T07:27:58;98179.56;;;6.67;100.00
61039;BME280;46919;45.816;3.104;2023-12-29T07:30:24;98179.47;;;6.76;100.00
61039;BME280;46919;45.816;3.104;2023-12-29T07:32:49;98180.09;;;6.78;100.00
61039;BME280;46919;45.816;3.104;2023-12-29T07:35:16;98172.81;;;6.71;100.00
61039;BME280;46919;45.816;3.104;2023-12-29T07:37:44;98168.19;;;6.65;100.00
61039;BME280;46919;45.816;3.104;2023-12-29T07:40:10;98172.69;;;6.58;100.00
61039;BME280;46919;45.816;3.104;2023-12-29T07:42:36;98186.22;;;6.50;100.00
61039;BME280;46919;45.816;3.104;2023-12-29T07:45:02;98194.03;;;6.45;100.00
61039;BME280;46919;45.816;3.104;2023-12-29T07:47:27;98190.34;;;6.46;100.00
61039;BME280;46919;45.816;3.104;2023-12-29T07:49:52;98190.34;;;6.46;100.00
61039;BME280;46919;45.816;3.104;2023-12-29T07:52:18;98204.78;;;6.45;100.00
61039;BME280;46919;45.816;3.104;2023-12-29T07:54:43;98210.50;;;6.42;100.00
61039;BME280;46919;45.816;3.104;2023-12-29T07:57:08;98205.16;;;6.42;100.00
61039;BME280;46919;45.816;3.104;2023-12-29T07:59:35;98203.19;;;6.50;100.00
61039;BME280;46919;45.816;3.104;2023-12-29T08:02:00;98197.06;;;6.57;100.00
61039;BME280;46919;45.816;3.104;2023-12-29T08:04:25;98195.50;;;6.69;100.00
61039;BME280;46919;45.816;3.104;2023-12-29T08:06:51;98186.22;;;6.71;100.00
61039;BME280;46919;45.816;3.104;2023-12-29T08:09:16;98202.97;;;6.74;100.00
61039;BME280;46919;45.816;3.104;2023-12-29T08:11:41;98196.03;;;6.79;100.00
61039;BME280;46919;45.816;3.104;2023-12-29T08:14:08;98187.75;;;6.81;100.00
61039;BME280;46919;45.816;3.104;2023-12-29T08:16:40;98201.81;;;6.83;100.00
61039;BME280;46919;45.816;3.104;2023-12-29T08:19:06;98189.69;;;6.87;100.00
61039;BME280;46919;45.816;3.104;2023-12-29T08:21:32;98184.34;;;6.94;100.00
61039;BME280;46919;45.816;3.104;2023-12-29T08:23:58;98192.91;;;7.04;100.00
61039;BME280;46919;45.816;3.104;2023-12-29T08:26:23;98193.38;;;7.07;100.00
61039;BME280;46919;45.816;3.104;2023-12-29T08:28:48;98187.59;;;7.11;100.00
61039;BME280;46919;45.816;3.104;2023-12-29T08:31:14;98183.25;;;7.10;100.00
61039;BME280;46919;45.816;3.104;2023-12-29T08:33:41;98176.38;;;7.07;100.00
61039;BME280;46919;45.816;3.104;2023-12-29T08:36:06;98179.06;;;7.07;100.00
61039;BME280;46919;45.816;3.104;2023-12-29T08:38:32;98205.41;;;7.18;100.00
61039;BME280;46919;45.816;3.104;2023-12-29T08:40:58;98197.03;;;7.28;100.00
61039;BME280;46919;45.816;3.104;2023-12-29T08:43:24;98214.22;;;7.34;100.00
61039;BME280;46919;45.816;3.104;2023-12-29T08:45:49;98193.34;;;7.36;100.00
61039;BME280;46919;45.816;3.104;2023-12-29T08:48:15;98209.03;;;7.32;100.00
61039;BME280;46919;45.816;3.104;2023-12-29T08:50:41;98213.16;;;7.28;100.00
61039;BME280;46919;45.816;3.104;2023-12-29T08:53:08;98205.91;;;7.29;100.00
61039;BME280;46919;45.816;3.104;2023-12-29T08:55:34;98213.44;;;7.40;100.00
61039;BME280;46919;45.816;3.104;2023-12-29T08:57:59;98214.56;;;7.52;100.00
61039;BME280;46919;45.816;3.104;2023-12-29T09:00:25;98213.41;;;7.68;100.00
61039;BME280;46919;45.816;3.104;2023-12-29T09:02:50;98204.34;;;7.76;100.00
61039;BME280;46919;45.816;3.104;2023-12-29T09:05:15;98201.31;;;7.92;100.00
61039;BME280;46919;45.816;3.104;2023-12-29T09:07:41;98202.41;;;8.05;100.00
61039;BME280;46919;45.816;3.104;2023-12-29T09:10:07;98202.66;;;8.16;100.00
61039;BME280;46919;45.816;3.104;2023-12-29T09:12:35;98216.78;;;8.32;100.00
61039;BME280;46919;45.816;3.104;2023-12-29T09:15:01;98211.25;;;8.47;100.00
61039;BME280;46919;45.816;3.104;2023-12-29T09:17:27;98205.91;;;8.54;100.00
61039;BME280;46919;45.816;3.104;2023-12-29T09:19:52;98202.81;;;8.57;100.00
61039;BME280;46919;45.816;3.104;2023-12-29T09:22:18;98204.06;;;8.61;100.00
61039;BME280;46919;45.816;3.104;2023-12-29T09:24:43;98210.31;;;8.68;100.00
61039;BME280;46919;45.816;3.104;2023-12-29T09:27:09;98196.41;;;8.78;100.00
61039;BME280;46919;45.816;3.104;2023-12-29T09:29:34;98200.78;;;8.85;100.00
61039;BME280;46919;45.816;3.104;2023-12-29T09:31:59;98200.16;;;8.97;100.00
61039;BME280;46919;45.816;3.104;2023-12-29T09:34:25;98203.91;;;9.02;100.00
61039;BME280;46919;45.816;3.104;2023-12-29T09:36:50;98203.91;;;9.16;99.13
61039;BME280;46919;45.816;3.104;2023-12-29T09:39:16;98208.22;;;9.37;98.42
61039;BME280;46919;45.816;3.104;2023-12-29T09:41:43;98216.53;;;9.49;96.94
61039;BME280;46919;45.816;3.104;2023-12-29T09:44:13;98216.09;;;9.58;96.91
61039;BME280;46919;45.816;3.104;2023-12-29T09:46:41;98228.13;;;9.69;95.82
61039;BME280;46919;45.816;3.104;2023-12-29T09:49:08;98222.72;;;9.76;94.84
61039;BME280;46919;45.816;3.104;2023-12-29T09:51:35;98225.00;;;9.72;94.94
61039;BME280;46919;45.816;3.104;2023-12-29T09:54:02;98224.59;;;9.75;93.27
61039;BME280;46919;45.816;3.104;2023-12-29T09:56:28;98228.09;;;9.76;92.74
61039;BME280;46919;45.816;3.104;2023-12-29T09:58:54;98214.97;;;9.86;91.39
61039;BME280;46919;45.816;3.104;2023-12-29T10:01:21;98209.22;;;9.76;90.62
61039;BME280;46919;45.816;3.104;2023-12-29T10:03:48;98219.41;;;9.74;90.31
61039;BME280;46919;45.816;3.104;2023-12-29T10:06:19;98219.41;;;9.74;89.43
61039;BME280;46919;45.816;3.104;2023-12-29T10:08:46;98217.31;;;9.76;89.82
61039;BME280;46919;45.816;3.104;2023-12-29T10:11:15;98221.88;;;9.75;89.43
61039;BME280;46919;45.816;3.104;2023-12-29T10:13:43;98228.94;;;9.70;90.16
61039;BME280;46919;45.816;3.104;2023-12-29T10:21:31;98218.97;;;9.70;90.20
61039;BME280;46919;45.816;3.104;2023-12-29T10:24:04;98223.31;;;9.78;88.48
61039;BME280;46919;45.816;3.104;2023-12-29T10:26:31;98206.69;;;9.88;87.99
61039;BME280;46919;45.816;3.104;2023-12-29T10:28:58;98204.97;;;10.00;87.05
61039;BME280;46919;45.816;3.104;2023-12-29T10:31:24;98207.88;;;9.98;86.73
61039;BME280;46919;45.816;3.104;2023-12-29T10:33:49;98202.06;;;10.02;86.75
61039;BME280;46919;45.816;3.104;2023-12-29T10:36:16;98210.13;;;10.08;86.52
61039;BME280;46919;45.816;3.104;2023-12-29T10:38:42;98209.69;;;10.18;85.99
61039;BME280;46919;45.816;3.104;2023-12-29T10:41:11;98203.03;;;10.21;86.01
61039;BME280;46919;45.816;3.104;2023-12-29T10:43:40;98213.69;;;10.09;85.98
61039;BME280;46919;45.816;3.104;2023-12-29T10:46:08;98206.63;;;10.08;86.95
61039;BME280;46919;45.816;3.104;2023-12-29T10:48:34;98207.22;;;10.10;86.58
61039;BME280;46919;45.816;3.104;2023-12-29T10:51:00;98201.34;;;10.20;85.91
61039;BME280;46919;45.816;3.104;2023-12-29T10:53:32;98199.84;;;10.37;85.55
61039;BME280;46919;45.816;3.104;2023-12-29T10:55:57;98187.38;;;10.43;85.64
61039;BME280;46919;45.816;3.104;2023-12-29T10:58:26;98180.06;;;10.50;85.00
61039;BME280;46919;45.816;3.104;2023-12-29T11:00:55;98179.16;;;10.56;84.52
61039;BME280;46919;45.816;3.104;2023-12-29T11:03:22;98179.09;;;10.69;83.19
61039;BME280;46919;45.816;3.104;2023-12-29T11:05:47;98183.53;;;10.89;82.91
61039;BME280;46919;45.816;3.104;2023-12-29T11:08:20;98187.19;;;11.01;82.08
61039;BME280;46919;45.816;3.104;2023-12-29T11:10:48;98178.78;;;11.10;82.12
61039;BME280;46919;45.816;3.104;2023-12-29T11:13:14;98177.59;;;11.05;82.49
61039;BME280;46919;45.816;3.104;2023-12-29T11:15:45;98183.44;;;11.02;82.82
61039;BME280;46919;45.816;3.104;2023-12-29T11:18:16;98169.69;;;11.04;82.53
61039;BME280;46919;45.816;3.104;2023-12-29T11:20:42;98171.78;;;11.02;82.42
61039;BME280;46919;45.816;3.104;2023-12-29T11:23:11;98164.75;;;10.94;82.60
61039;BME280;46919;45.816;3.104;2023-12-29T11:25:40;98162.16;;;10.81;83.13
61039;BME280;46919;45.816;3.104;2023-12-29T11:28:09;98158.88;;;10.79;82.70
61039;BME280;46919;45.816;3.104;2023-12-29T11:30:35;98157.78;;;10.80;82.73
61039;BME280;46919;45.816;3.104;2023-12-29T11:33:07;98144.72;;;10.77;82.14
61039;BME280;46919;45.816;3.104;2023-12-29T11:41:05;98133.53;;;10.98;82.40
61039;BME280;46919;45.816;3.104;2023-12-29T11:43:34;98143.91;;;11.01;81.98
61039;BME280;46919;45.816;3.104;2023-12-29T11:46:00;98143.63;;;11.10;82.07
61039;BME280;46919;45.816;3.104;2023-12-29T11:48:54;98128.75;;;11.19;81.17
61039;BME280;46919;45.816;3.104;2023-12-29T11:54:02;98118.72;;;11.26;81.93
61039;BME280;46919;45.816;3.104;2023-12-29T11:56:35;98107.66;;;11.46;81.31
61039;BME280;46919;45.816;3.104;2023-12-29T11:59:14;98105.69;;;11.72;80.55
61039;BME280;46919;45.816;3.104;2023-12-29T12:01:40;98101.41;;;11.83;80.45
61039;BME280;46919;45.816;3.104;2023-12-29T12:07:08;98099.78;;;11.82;80.79
61039;BME280;46919;45.816;3.104;2023-12-29T12:09:35;98089.53;;;11.84;80.09
61039;BME280;46919;45.816;3.104;2023-12-29T12:12:04;98096.00;;;11.83;79.21
61039;BME280;46919;45.816;3.104;2023-12-29T12:14:50;98096.75;;;11.71;78.88
61039;BME280;46919;45.816;3.104;2023-12-29T12:17:42;98095.72;;;11.72;79.13
61039;BME280;46919;45.816;3.104;2023-12-29T12:20:08;98095.41;;;11.81;79.83
61039;BME280;46919;45.816;3.104;2023-12-29T12:22:36;98090.44;;;11.96;78.84
61039;BME280;46919;45.816;3.104;2023-12-29T12:25:02;98085.63;;;12.28;77.86
61039;BME280;46919;45.816;3.104;2023-12-29T12:27:29;98079.75;;;12.43;76.69
61039;BME280;46919;45.816;3.104;2023-12-29T12:29:58;98074.94;;;12.45;77.32
61039;BME280;46919;45.816;3.104;2023-12-29T12:32:29;98070.56;;;12.44;77.33
61039;BME280;46919;45.816;3.104;2023-12-29T12:34:55;98072.13;;;12.40;77.93
61039;BME280;46919;45.816;3.104;2023-12-29T12:37:28;98061.28;;;12.40;77.47
61039;BME280;46919;45.816;3.104;2023-12-29T12:39:55;98065.25;;;12.38;78.18
61039;BME280;46919;45.816;3.104;2023-12-29T12:42:22;98061.97;;;12.36;77.69
61039;BME280;46919;45.816;3.104;2023-12-29T12:45:05;98043.88;;;12.18;77.57
61039;BME280;46919;45.816;3.104;2023-12-29T12:47:34;98051.75;;;12.07;77.60
61039;BME280;46919;45.816;3.104;2023-12-29T12:50:01;98057.97;;;12.08;76.58
61039;BME280;46919;45.816;3.104;2023-12-29T12:52:35;98060.47;;;12.09;75.80
61039;BME280;46919;45.816;3.104;2023-12-29T12:55:01;98055.50;;;12.06;75.92
61039;BME280;46919;45.816;3.104;2023-12-29T12:57:27;98057.94;;;11.96;75.68
61039;BME280;46919;45.816;3.104;2023-12-29T12:59:53;98063.28;;;11.84;76.78
61039;BME280;46919;45.816;3.104;2023-12-29T13:02:19;98077.94;;;11.76;76.90
61039;BME280;46919;45.816;3.104;2023-12-29T13:04:45;98058.63;;;11.73;76.81
61039;BME280;46919;45.816;3.104;2023-12-29T13:07:15;98083.88;;;11.85;73.58
61039;BME280;46919;45.816;3.104;2023-12-29T13:09:41;98080.94;;;11.87;72.16
61039;BME280;46919;45.816;3.104;2023-12-29T13:12:10;98079.84;;;11.76;71.84
61039;BME280;46919;45.816;3.104;2023-12-29T13:14:36;98069.81;;;11.76;70.57